createdAt,value
2023-02-17T00:00:42.119Z,2.29
2023-02-17T00:03:11.039Z,2.32
2023-02-17T00:05:41.419Z,2.37
2023-02-17T00:08:09.089Z,2.40
2023-02-17T00:10:36.791Z,2.37
2023-02-17T00:13:04.592Z,2.37
2023-02-17T00:15:32.282Z,2.38
2023-02-17T00:18:00.004Z,2.35
2023-02-17T00:20:29.271Z,2.31
2023-02-17T00:22:58.246Z,2.34
2023-02-17T00:25:26.127Z,2.37
2023-02-17T00:27:53.734Z,2.34
2023-02-17T00:30:21.584Z,2.29
2023-02-17T00:32:50.079Z,2.27
2023-02-17T00:35:17.771Z,2.25
2023-02-17T00:37:45.825Z,2.26
2023-02-17T00:40:15.533Z,2.27
2023-02-17T00:42:43.244Z,2.28
2023-02-17T00:45:11.136Z,2.36
2023-02-17T00:47:38.728Z,2.43
2023-02-17T00:50:07.221Z,2.36
2023-02-17T00:52:36.043Z,2.44
2023-02-17T00:55:03.787Z,2.42
2023-02-17T00:57:33.289Z,2.44
2023-02-17T01:00:00.941Z,2.49
2023-02-17T01:02:28.985Z,2.52
2023-02-17T01:04:56.814Z,2.54
2023-02-17T01:07:24.548Z,2.65
2023-02-17T01:09:52.195Z,2.68
2023-02-17T01:12:19.868Z,2.75
2023-02-17T01:14:49.119Z,2.79
2023-02-17T01:17:16.827Z,2.84
2023-02-17T01:19:44.437Z,2.89
2023-02-17T01:22:12.107Z,2.90
2023-02-17T01:24:39.920Z,2.90
2023-02-17T01:27:07.654Z,2.87
2023-02-17T01:29:35.390Z,2.86
2023-02-17T01:32:04.559Z,2.87
2023-02-17T01:34:32.227Z,2.89
2023-02-17T01:37:00.002Z,2.91
2023-02-17T01:39:27.642Z,2.93
2023-02-17T01:41:55.344Z,2.93
2023-02-17T01:44:24.220Z,2.94
2023-02-17T01:46:52.841Z,2.91
2023-02-17T01:49:28.349Z,2.94
2023-02-17T01:51:58.482Z,2.96
2023-02-17T01:54:27.977Z,2.96
2023-02-17T01:56:57.282Z,2.98
2023-02-17T01:59:24.989Z,2.99
2023-02-17T02:01:55.782Z,2.97
2023-02-17T02:04:25.843Z,2.97
2023-02-17T02:06:54.997Z,2.95
2023-02-17T02:09:23.963Z,2.92
2023-02-17T02:11:51.867Z,2.91
2023-02-17T02:14:20.469Z,2.96
2023-02-17T02:16:53.053Z,2.95
2023-02-17T02:19:44.403Z,2.94
2023-02-17T02:22:30.068Z,2.93
2023-02-17T02:25:00.569Z,2.92
2023-02-17T02:27:43.094Z,2.90
2023-02-17T02:30:29.447Z,2.93
2023-02-17T02:33:07.891Z,2.95
2023-02-17T02:35:38.999Z,2.95
2023-02-17T02:38:11.739Z,2.95
2023-02-17T02:40:42.319Z,2.93
2023-02-17T02:43:10.653Z,2.95
2023-02-17T02:45:38.308Z,2.97
2023-02-17T02:48:07.323Z,2.96
2023-02-17T02:50:43.992Z,2.95
2023-02-17T02:53:22.880Z,2.95
2023-02-17T02:55:54.011Z,2.92
2023-02-17T02:58:23.580Z,2.91
2023-02-17T03:00:56.160Z,2.91
2023-02-17T03:03:28.826Z,2.95
2023-02-17T03:05:58.507Z,2.93
2023-02-17T03:08:29.794Z,2.92
2023-02-17T03:10:57.717Z,2.92
2023-02-17T03:13:25.439Z,2.91
2023-02-17T03:15:53.113Z,2.93
2023-02-17T03:18:21.226Z,2.94
2023-02-17T03:20:53.312Z,2.96
2023-02-17T03:23:21.247Z,2.95
2023-02-17T03:25:48.852Z,2.97
2023-02-17T03:28:16.593Z,2.99
2023-02-17T03:30:44.320Z,2.96
2023-02-17T03:33:11.989Z,3.01
2023-02-17T03:35:39.604Z,3.03
2023-02-17T03:38:08.666Z,3.02
2023-02-17T03:40:36.363Z,3.10
2023-02-17T03:43:03.985Z,3.12
2023-02-17T03:45:31.964Z,3.09
2023-02-17T03:47:59.704Z,3.12
2023-02-17T03:50:27.371Z,3.13
2023-02-17T03:52:55.113Z,3.13
2023-02-17T03:55:24.250Z,3.15
2023-02-17T03:57:51.964Z,3.17
2023-02-17T04:00:20.013Z,3.17
2023-02-17T04:02:47.738Z,3.18
2023-02-17T04:05:15.604Z,3.20
2023-02-17T04:07:43.255Z,3.19
2023-02-17T04:10:11.339Z,3.23
2023-02-17T04:12:40.443Z,3.22
2023-02-17T04:15:08.447Z,3.22
2023-02-17T04:17:37.028Z,3.22
2023-02-17T04:20:05.003Z,3.23
2023-02-17T04:22:32.692Z,3.25
2023-02-17T04:25:00.394Z,3.26
2023-02-17T04:27:28.076Z,3.26
2023-02-17T04:29:57.245Z,3.26
2023-02-17T04:32:24.938Z,3.27
2023-02-17T04:34:52.703Z,3.28
2023-02-17T04:37:20.819Z,3.27
2023-02-17T04:39:48.550Z,3.28
2023-02-17T04:42:16.191Z,3.27
2023-02-17T04:44:43.838Z,3.28
2023-02-17T04:47:13.230Z,3.27
2023-02-17T04:49:40.953Z,3.28
2023-02-17T04:52:11.071Z,3.25
2023-02-17T04:54:38.954Z,3.26
2023-02-17T04:57:06.679Z,3.28
2023-02-17T04:59:34.441Z,3.25
2023-02-17T05:02:02.437Z,3.24
2023-02-17T05:04:31.580Z,3.25
2023-02-17T05:06:59.357Z,3.21
2023-02-17T05:09:27.123Z,3.20
2023-02-17T05:11:54.789Z,3.17
2023-02-17T05:14:22.439Z,3.19
2023-02-17T05:16:50.120Z,3.18
2023-02-17T05:19:17.725Z,3.20
2023-02-17T05:21:46.721Z,3.18
2023-02-17T05:24:14.404Z,3.18
2023-02-17T05:26:42.118Z,3.18
2023-02-17T05:29:09.850Z,3.15
2023-02-17T05:31:37.542Z,3.18
2023-02-17T05:34:05.352Z,3.19
2023-02-17T05:36:33.079Z,3.17
2023-02-17T05:39:02.136Z,3.20
2023-02-17T05:41:29.873Z,3.19
2023-02-17T05:43:57.587Z,3.17
2023-02-17T05:46:25.248Z,3.20
2023-02-17T05:48:52.911Z,3.26
2023-02-17T05:51:20.537Z,3.29
2023-02-17T05:53:48.153Z,3.30
2023-02-17T05:56:17.178Z,3.36
2023-02-17T05:58:44.787Z,3.35
2023-02-17T06:01:13.180Z,3.39
2023-02-17T06:03:40.992Z,3.39
2023-02-17T06:06:09.047Z,3.43
2023-02-17T06:08:37.165Z,3.45
2023-02-17T06:11:05.101Z,3.46
2023-02-17T06:13:34.195Z,3.47
2023-02-17T06:16:01.847Z,3.50
2023-02-17T06:18:29.675Z,3.52
2023-02-17T06:20:57.869Z,3.53
2023-02-17T06:23:25.636Z,3.56
2023-02-17T06:25:53.379Z,3.56
2023-02-17T06:28:21.015Z,3.58
2023-02-17T06:30:50.152Z,3.61
2023-02-17T06:33:17.867Z,3.65
2023-02-17T06:35:48.912Z,3.65
2023-02-17T06:38:16.794Z,3.66
2023-02-17T06:40:44.520Z,3.70
2023-02-17T06:43:12.438Z,3.73
2023-02-17T06:45:40.216Z,3.76
2023-02-17T06:48:09.291Z,3.76
2023-02-17T06:50:37.357Z,3.77
2023-02-17T06:53:05.080Z,3.80
2023-02-17T06:55:34.787Z,3.85
2023-02-17T06:58:02.563Z,3.86
2023-02-17T07:00:30.226Z,3.88
2023-02-17T07:02:58.025Z,3.90
2023-02-17T07:05:27.112Z,3.91
2023-02-17T07:07:56.018Z,3.93
2023-02-17T07:10:23.689Z,3.95
2023-02-17T07:12:52.076Z,4.00
2023-02-17T07:15:19.900Z,4.02
2023-02-17T07:17:47.663Z,4.03
2023-02-17T07:20:15.306Z,4.05
2023-02-17T07:22:44.413Z,4.10
2023-02-17T07:25:12.189Z,4.12
2023-02-17T07:27:39.849Z,4.16
2023-02-17T07:30:08.268Z,4.24
2023-02-17T07:32:36.617Z,4.25
2023-02-17T07:35:04.588Z,4.31
2023-02-17T07:37:32.334Z,4.33
2023-02-17T07:40:01.399Z,4.37
2023-02-17T07:42:29.168Z,4.40
2023-02-17T07:44:56.781Z,4.42
2023-02-17T07:47:24.415Z,4.43
2023-02-17T07:49:52.301Z,4.47
2023-02-17T07:52:20.093Z,4.49
2023-02-17T07:54:47.704Z,4.51
2023-02-17T07:57:16.995Z,4.52
2023-02-17T07:59:44.661Z,4.53
2023-02-17T08:02:12.885Z,4.57
2023-02-17T08:04:40.641Z,4.59
2023-02-17T08:07:08.394Z,4.60
2023-02-17T08:09:53.588Z,4.62
2023-02-17T08:12:39.566Z,4.64
2023-02-17T08:15:08.237Z,4.67
2023-02-17T08:17:35.956Z,4.69
2023-02-17T08:20:08.810Z,4.70
2023-02-17T08:22:37.016Z,4.73
2023-02-17T08:25:06.278Z,4.76
2023-02-17T08:27:35.568Z,4.81
2023-02-17T08:30:03.594Z,4.84
2023-02-17T08:32:31.380Z,4.81
2023-02-17T08:34:59.302Z,4.88
2023-02-17T08:37:27.329Z,4.91
2023-02-17T08:39:54.946Z,4.92
2023-02-17T08:42:22.651Z,4.93
2023-02-17T08:44:51.701Z,4.97
2023-02-17T08:47:19.429Z,4.96
2023-02-17T08:49:47.091Z,4.99
2023-02-17T08:52:14.835Z,5.00
2023-02-17T08:54:42.565Z,5.03
2023-02-17T08:57:10.253Z,5.03
2023-02-17T08:59:38.073Z,5.05
2023-02-17T09:02:08.318Z,5.07
2023-02-17T09:04:36.001Z,5.10
2023-02-17T09:07:03.838Z,5.14
2023-02-17T09:09:32.661Z,5.17
2023-02-17T09:12:00.637Z,5.22
2023-02-17T09:14:29.027Z,5.27
2023-02-17T09:16:57.426Z,5.35
2023-02-17T09:19:26.942Z,5.37
2023-02-17T09:21:54.685Z,5.38
2023-02-17T09:24:22.413Z,5.45
2023-02-17T09:26:50.058Z,5.51
2023-02-17T09:29:17.723Z,5.54
2023-02-17T09:31:46.141Z,5.56
2023-02-17T09:34:13.930Z,5.61
2023-02-17T09:36:43.283Z,5.60
2023-02-17T09:39:13.557Z,5.63
2023-02-17T09:41:44.170Z,5.63
2023-02-17T09:44:17.875Z,5.64
2023-02-17T09:47:00.991Z,5.64
2023-02-17T09:49:32.378Z,5.62
2023-02-17T09:52:03.652Z,5.66
2023-02-17T09:54:33.488Z,5.63
2023-02-17T09:57:02.869Z,5.65
2023-02-17T09:59:33.468Z,5.66
2023-02-17T10:02:02.367Z,5.68
2023-02-17T10:04:35.142Z,5.68
2023-02-17T10:07:08.589Z,5.69
2023-02-17T10:09:39.623Z,5.69
2023-02-17T10:12:09.870Z,5.66
2023-02-17T10:14:40.066Z,5.68
2023-02-17T10:17:10.510Z,5.71
2023-02-17T10:19:43.743Z,5.72
2023-02-17T10:22:15.380Z,5.71
2023-02-17T10:24:43.134Z,5.73
2023-02-17T10:27:22.884Z,5.74
2023-02-17T10:29:58.581Z,5.79
2023-02-17T10:32:27.205Z,5.76
2023-02-17T10:35:04.693Z,5.76
2023-02-17T10:37:41.604Z,5.75
2023-02-17T10:40:13.058Z,5.70
2023-02-17T10:42:41.168Z,5.71
2023-02-17T10:45:13.060Z,5.68
2023-02-17T10:47:41.262Z,5.68
2023-02-17T10:50:15.917Z,5.70
2023-02-17T10:52:45.376Z,5.65
2023-02-17T10:55:23.185Z,5.65
2023-02-17T10:57:53.774Z,5.65
2023-02-17T11:00:21.693Z,5.62
2023-02-17T11:02:50.384Z,5.60
2023-02-17T11:05:22.681Z,5.60
2023-02-17T11:07:55.885Z,5.61
2023-02-17T11:10:24.965Z,5.57
2023-02-17T11:12:52.770Z,5.56
2023-02-17T11:15:21.841Z,5.57
2023-02-17T11:17:49.909Z,5.55
2023-02-17T11:20:29.432Z,5.53
2023-02-17T11:23:03.511Z,5.53
2023-02-17T11:25:32.290Z,5.50
2023-02-17T11:28:00.853Z,5.50
2023-02-17T11:30:29.836Z,5.51
2023-02-17T11:32:57.897Z,5.48
2023-02-17T11:35:27.323Z,5.50
2023-02-17T11:38:03.793Z,5.52
2023-02-17T11:40:33.282Z,5.52
2023-02-17T11:43:01.847Z,5.55
2023-02-17T11:45:34.005Z,5.54
2023-02-17T11:48:12.855Z,5.57
2023-02-17T11:50:46.228Z,5.58
2023-02-17T11:53:21.202Z,5.60
2023-02-17T11:55:55.353Z,5.59
2023-02-17T11:58:28.994Z,5.59
2023-02-17T12:01:00.822Z,5.60
2023-02-17T12:03:40.887Z,5.62
2023-02-17T12:06:12.107Z,5.64
2023-02-17T12:08:49.342Z,5.64
2023-02-17T12:11:21.018Z,5.66
2023-02-17T12:13:55.047Z,5.67
2023-02-17T12:16:28.104Z,5.66
2023-02-17T12:19:00.989Z,5.66
2023-02-17T12:21:35.201Z,5.65
2023-02-17T12:24:09.448Z,5.65
2023-02-17T12:26:39.627Z,5.66
2023-02-17T12:29:13.625Z,5.67
2023-02-17T12:31:47.105Z,5.67
2023-02-17T12:34:19.320Z,5.68
2023-02-17T12:36:47.643Z,5.69
2023-02-17T12:39:21.225Z,5.68
2023-02-17T12:41:52.093Z,5.70
2023-02-17T12:44:21.955Z,5.71
2023-02-17T12:46:51.529Z,5.68
2023-02-17T12:49:21.311Z,5.68
2023-02-17T12:51:50.970Z,5.68
2023-02-17T12:54:21.651Z,5.63
2023-02-17T12:56:56.242Z,5.61
2023-02-17T12:59:27.764Z,5.60
2023-02-17T13:01:58.119Z,5.58
2023-02-17T13:04:26.494Z,5.56
2023-02-17T13:06:56.305Z,5.55
2023-02-17T13:09:30.732Z,5.50
2023-02-17T13:12:09.128Z,5.48
2023-02-17T13:14:40.545Z,5.46
2023-02-17T13:17:22.459Z,5.43
2023-02-17T13:20:00.925Z,5.38
2023-02-17T13:22:28.648Z,5.33
2023-02-17T13:24:57.818Z,5.29
2023-02-17T13:27:34.559Z,5.24
2023-02-17T13:30:03.876Z,5.18
2023-02-17T13:32:32.745Z,5.18
2023-02-17T13:35:01.765Z,5.14
2023-02-17T13:37:39.833Z,5.09
2023-02-17T13:40:22.757Z,5.02
2023-02-17T13:42:52.744Z,4.98
2023-02-17T13:45:24.262Z,4.93
2023-02-17T13:47:53.072Z,4.86
2023-02-17T13:50:28.269Z,4.82
2023-02-17T13:52:56.168Z,4.77
2023-02-17T13:55:24.661Z,4.73
2023-02-17T13:57:55.133Z,4.69
2023-02-17T14:00:23.939Z,4.61
2023-02-17T14:02:52.644Z,4.56
2023-02-17T14:05:21.497Z,4.50
2023-02-17T14:07:49.723Z,4.49
2023-02-17T14:10:19.050Z,4.43
2023-02-17T14:12:48.822Z,4.40
2023-02-17T14:15:18.485Z,4.37
2023-02-17T14:17:46.239Z,4.34
2023-02-17T14:20:27.463Z,4.33
2023-02-17T14:23:04.239Z,4.27
2023-02-17T14:25:33.016Z,4.26
2023-02-17T14:28:00.741Z,4.24
2023-02-17T14:30:31.032Z,4.24
2023-02-17T14:33:06.328Z,4.21
2023-02-17T14:35:35.457Z,4.20
2023-02-17T14:38:10.604Z,4.17
2023-02-17T14:40:40.080Z,4.15
2023-02-17T14:43:07.911Z,4.14
2023-02-17T14:45:37.018Z,4.11
2023-02-17T14:48:05.180Z,4.08
2023-02-17T14:50:32.896Z,4.09
2023-02-17T14:53:00.699Z,4.06
2023-02-17T14:55:33.713Z,4.05
2023-02-17T14:58:01.565Z,4.06
2023-02-17T15:00:29.328Z,4.05
2023-02-17T15:02:58.438Z,4.03
2023-02-17T15:05:26.326Z,4.03
2023-02-17T15:07:53.999Z,4.00
2023-02-17T15:10:22.938Z,3.98
2023-02-17T15:12:50.640Z,3.98
2023-02-17T15:15:18.911Z,3.96
2023-02-17T15:17:46.624Z,3.94
2023-02-17T15:20:17.062Z,3.93
2023-02-17T15:22:44.822Z,3.93
2023-02-17T15:25:17.009Z,3.88
2023-02-17T15:27:44.920Z,3.88
2023-02-17T15:30:13.581Z,3.85
2023-02-17T15:32:41.275Z,3.87
2023-02-17T15:35:19.781Z,3.86
2023-02-17T15:37:47.490Z,3.85
2023-02-17T15:40:16.356Z,3.83
2023-02-17T15:42:44.852Z,3.82
2023-02-17T15:45:14.523Z,3.81
2023-02-17T15:47:42.492Z,3.80
2023-02-17T15:50:20.660Z,3.78
2023-02-17T15:52:50.601Z,3.78
2023-02-17T15:55:19.124Z,3.78
2023-02-17T15:57:47.879Z,3.77
2023-02-17T16:00:21.671Z,3.75
2023-02-17T16:02:49.441Z,3.75
2023-02-17T16:05:18.694Z,3.74
2023-02-17T16:07:46.800Z,3.72
2023-02-17T16:10:17.417Z,3.72
2023-02-17T16:12:45.756Z,3.71
2023-02-17T16:15:15.415Z,3.69
2023-02-17T16:17:43.151Z,3.68
2023-02-17T16:20:18.395Z,3.70
2023-02-17T16:22:46.177Z,3.68
2023-02-17T16:25:16.575Z,3.68
2023-02-17T16:27:44.949Z,3.69
2023-02-17T16:30:17.055Z,3.68
2023-02-17T16:32:44.783Z,3.67
2023-02-17T16:35:14.597Z,3.66
2023-02-17T16:37:42.424Z,3.69
2023-02-17T16:40:18.369Z,3.69
2023-02-17T16:42:46.193Z,3.70
2023-02-17T16:45:17.434Z,3.71
2023-02-17T16:47:46.063Z,3.71
2023-02-17T16:50:18.559Z,3.72
2023-02-17T16:52:46.554Z,3.73
2023-02-17T16:55:18.193Z,3.74
2023-02-17T16:57:46.712Z,3.74
2023-02-17T17:00:16.399Z,3.72
2023-02-17T17:02:44.421Z,3.73
2023-02-17T17:05:13.309Z,3.73
2023-02-17T17:07:41.611Z,3.74
2023-02-17T17:10:16.617Z,3.75
2023-02-17T17:12:46.872Z,3.79
2023-02-17T17:15:16.289Z,3.78
2023-02-17T17:17:45.594Z,3.79
2023-02-17T17:20:14.643Z,3.81
2023-02-17T17:22:42.565Z,3.82
2023-02-17T17:25:10.238Z,3.82
2023-02-17T17:27:38.142Z,3.82
2023-02-17T17:30:08.141Z,3.82
2023-02-17T17:32:36.011Z,3.84
2023-02-17T17:35:03.716Z,3.84
2023-02-17T17:37:31.429Z,3.86
2023-02-17T17:39:59.134Z,3.87
2023-02-17T17:42:26.958Z,3.88
2023-02-17T17:44:54.634Z,3.88
2023-02-17T17:47:29.722Z,3.89
2023-02-17T17:49:58.238Z,3.92
2023-02-17T17:52:26.106Z,3.93
2023-02-17T17:54:53.732Z,3.91
2023-02-17T17:57:22.556Z,3.92
2023-02-17T17:59:50.283Z,3.94
2023-02-17T18:02:17.984Z,3.94
2023-02-17T18:04:47.241Z,3.94
2023-02-17T18:07:15.043Z,3.96
2023-02-17T18:09:42.716Z,3.97
2023-02-17T18:12:12.129Z,3.98
2023-02-17T18:14:41.249Z,4.00
2023-02-17T18:17:09.633Z,4.00
2023-02-17T18:19:37.319Z,4.05
2023-02-17T18:22:06.379Z,4.05
2023-02-17T18:24:34.440Z,4.07
2023-02-17T18:27:02.113Z,4.08
2023-02-17T18:29:29.881Z,4.09
2023-02-17T18:31:59.101Z,4.09
2023-02-17T18:34:26.992Z,4.08
2023-02-17T18:36:54.665Z,4.11
2023-02-17T18:39:23.752Z,4.11
2023-02-17T18:41:51.400Z,4.10
2023-02-17T18:44:19.057Z,4.09
2023-02-17T18:46:46.825Z,4.09
2023-02-17T18:49:14.624Z,4.09
2023-02-17T18:51:42.259Z,4.09
2023-02-17T18:54:11.016Z,4.09
2023-02-17T18:56:40.252Z,4.07
2023-02-17T18:59:08.300Z,4.06
2023-02-17T19:01:38.597Z,4.05
2023-02-17T19:04:06.644Z,4.04
2023-02-17T19:06:35.085Z,4.04
2023-02-17T19:09:04.371Z,4.04
2023-02-17T19:11:32.828Z,4.02
2023-02-17T19:14:03.952Z,4.00
2023-02-17T19:16:32.126Z,4.01
2023-02-17T19:19:00.196Z,4.01
2023-02-17T19:21:31.416Z,4.01
2023-02-17T19:23:59.098Z,4.01
2023-02-17T19:26:26.814Z,3.99
2023-02-17T19:28:54.459Z,4.00
2023-02-17T19:31:24.677Z,4.00
2023-02-17T19:33:52.412Z,4.01
2023-02-17T19:36:21.742Z,4.00
2023-02-17T19:38:50.068Z,3.98
2023-02-17T19:41:18.537Z,3.99
2023-02-17T19:43:46.611Z,3.98
2023-02-17T19:46:14.652Z,4.00
2023-02-17T19:48:43.736Z,4.01
2023-02-17T19:51:12.382Z,4.02
2023-02-17T19:53:40.007Z,4.06
2023-02-17T19:56:11.707Z,4.04
2023-02-17T19:58:39.898Z,4.08
2023-02-17T20:01:07.929Z,4.09
2023-02-17T20:03:35.764Z,4.14
2023-02-17T20:06:09.668Z,4.15
2023-02-17T20:08:38.340Z,4.18
2023-02-17T20:11:07.855Z,4.21
2023-02-17T20:13:45.149Z,4.22
2023-02-17T20:16:14.550Z,4.22
2023-02-17T20:18:44.646Z,4.21
2023-02-17T20:21:15.323Z,4.18
2023-02-17T20:23:43.325Z,4.17
2023-02-17T20:26:12.025Z,4.16
2023-02-17T20:28:39.885Z,4.13
2023-02-17T20:31:07.937Z,4.13
2023-02-17T20:33:36.139Z,4.14
2023-02-17T20:36:04.062Z,4.15
2023-02-17T20:38:33.234Z,4.16
2023-02-17T20:41:00.839Z,4.15
2023-02-17T20:43:28.572Z,4.18
2023-02-17T20:45:56.392Z,4.19
2023-02-17T20:48:27.523Z,4.18
2023-02-17T20:50:55.321Z,4.16
2023-02-17T20:53:23.141Z,4.15
2023-02-17T20:55:52.492Z,4.09
2023-02-17T20:58:20.424Z,4.13
2023-02-17T21:00:48.556Z,4.11
2023-02-17T21:03:16.405Z,4.13
2023-02-17T21:05:44.217Z,4.15
2023-02-17T21:08:11.933Z,4.19
2023-02-17T21:10:40.040Z,4.20
2023-02-17T21:13:09.097Z,4.17
2023-02-17T21:15:36.779Z,4.18
2023-02-17T21:18:05.596Z,4.17
2023-02-17T21:20:33.869Z,4.15
2023-02-17T21:23:01.737Z,4.14
2023-02-17T21:25:29.499Z,4.13
2023-02-17T21:27:57.236Z,4.13
2023-02-17T21:30:26.424Z,4.14
2023-02-17T21:32:55.178Z,4.14
2023-02-17T21:35:22.895Z,4.13
2023-02-17T21:37:50.530Z,4.13
2023-02-17T21:40:18.197Z,4.13
2023-02-17T21:43:03.453Z,4.13
2023-02-17T21:45:38.119Z,4.10
2023-02-17T21:48:06.117Z,4.09
2023-02-17T21:50:33.791Z,4.06
2023-02-17T21:53:01.482Z,4.06
2023-02-17T21:55:29.157Z,4.03
2023-02-17T21:57:56.856Z,4.00
2023-02-17T22:00:24.543Z,4.03
2023-02-17T22:02:53.646Z,3.99
2023-02-17T22:05:21.277Z,4.00
2023-02-17T22:07:50.509Z,3.97
2023-02-17T22:10:18.902Z,3.96
2023-02-17T22:12:46.504Z,3.98
2023-02-17T22:15:16.172Z,3.98
2023-02-17T22:17:44.018Z,3.99
2023-02-17T22:20:15.145Z,4.00
2023-02-17T22:22:42.835Z,4.00
2023-02-17T22:25:10.575Z,4.01
2023-02-17T22:27:38.193Z,4.05
2023-02-17T22:30:06.574Z,4.05
2023-02-17T22:32:34.322Z,4.02
2023-02-17T22:35:01.980Z,4.02
2023-02-17T22:37:31.033Z,4.02
2023-02-17T22:39:58.765Z,4.03
2023-02-17T22:42:26.404Z,4.03
2023-02-17T22:44:54.061Z,4.02
2023-02-17T22:47:21.708Z,3.98
2023-02-17T22:49:49.440Z,3.91
2023-02-17T22:52:17.044Z,3.84
2023-02-17T22:54:46.096Z,3.80
2023-02-17T22:57:13.801Z,3.81
2023-02-17T22:59:41.458Z,3.79
2023-02-17T23:02:09.290Z,3.81
2023-02-17T23:04:37.068Z,3.84
2023-02-17T23:07:04.817Z,3.84
2023-02-17T23:09:32.519Z,3.82
2023-02-17T23:12:01.640Z,3.83
2023-02-17T23:14:31.900Z,3.81
2023-02-17T23:17:01.006Z,3.80
2023-02-17T23:19:29.003Z,3.80
2023-02-17T23:21:57.744Z,3.80
2023-02-17T23:24:25.773Z,3.78
2023-02-17T23:26:53.930Z,3.76
2023-02-17T23:29:23.028Z,3.74
2023-02-17T23:31:50.897Z,3.71
2023-02-17T23:34:18.655Z,3.69
2023-02-17T23:36:47.051Z,3.67
2023-02-17T23:39:15.676Z,3.66
2023-02-17T23:41:43.507Z,3.63
2023-02-17T23:44:12.316Z,3.62
2023-02-17T23:46:42.086Z,3.59
2023-02-17T23:49:10.253Z,3.57
2023-02-17T23:51:38.063Z,3.54
2023-02-17T23:54:05.790Z,3.53
2023-02-17T23:56:34.514Z,3.52
2023-02-17T23:59:02.506Z,3.48
